Time;durP1;ratioP1;P1;durP2;ratioP2;P2;SDS_P1;SDS_P2;PMS_P1;PMS_P2;Temp;Humidity;BMP_temperature;BMP_pressure;BME280_temperature;BME280_humidity;BME280_pressure;Samples;Min_cycle;Max_cycle;Signal;HPM_P1;HPM_P2
2021/12/10 00:00:11;;;;;;;10.17;7.07;;;;;;;;;;4997900;28;20179;-80
2021/12/10 00:02:38;;;;;;;9.90;7.17;;;;;;;;;;4998018;28;20195;-80
2021/12/10 00:05:06;;;;;;;9.90;6.97;;;;;;;;;;4998042;28;20206;-80
2021/12/10 00:07:33;;;;;;;9.10;7.53;;;;;;;;;;4998451;28;20222;-80
2021/12/10 00:10:01;;;;;;;9.40;7.27;;;;;;;;;;4998111;28;20186;-80
2021/12/10 00:12:31;;;;;;;10.77;7.23;;;;;;;;;;4998044;28;20258;-80
2021/12/10 00:14:58;;;;;;;9.47;6.97;;;;;;;;;;4997796;28;20179;-80
2021/12/10 00:17:24;;;;;;;10.97;7.37;;;;;;;;;;4998228;28;20184;-80
2021/12/10 00:19:54;;;;;;;8.30;6.53;;;;;;;;;;4997665;28;20274;-80
2021/12/10 00:22:24;;;;;;;9.70;7.10;;;;;;;;;;4997392;28;20197;-80
2021/12/10 00:24:51;;;;;;;9.23;6.13;;;;;;;;;;4997769;28;20182;-80
2021/12/10 00:27:27;;;;;;;8.77;6.03;;;;;;;;;;4997733;28;20274;-80
2021/12/10 00:29:53;;;;;;;9.90;6.97;;;;;;;;;;4997861;28;20179;-80
2021/12/10 00:32:31;;;;;;;10.10;7.30;;;;;;;;;;4997628;28;20250;-80
2021/12/10 00:34:58;;;;;;;10.27;7.63;;;;;;;;;;4997755;28;20179;-80
2021/12/10 00:37:24;;;;;;;8.80;6.67;;;;;;;;;;4997743;28;20237;-80
2021/12/10 00:39:52;;;;;;;9.00;6.40;;;;;;;;;;4997364;28;20270;-80
2021/12/10 00:42:20;;;;;;;7.57;5.80;;;;;;;;;;4998186;28;20210;-81
2021/12/10 00:44:46;;;;;;;6.60;5.17;;;;;;;;;;4997534;28;20175;-80
2021/12/10 00:47:12;;;;;;;6.53;5.80;;;;;;;;;;4997888;28;20217;-80
2021/12/10 00:49:38;;;;;;;5.97;4.90;;;;;;;;;;4997236;28;20562;-80
2021/12/10 00:52:06;;;;;;;6.10;5.03;;;;;;;;;;4997177;28;20208;-80
2021/12/10 00:54:32;;;;;;;6.33;4.80;;;;;;;;;;4997282;28;20630;-80
2021/12/10 00:56:58;;;;;;;7.73;6.03;;;;;;;;;;4997728;28;20187;-80
2021/12/10 00:59:24;;;;;;;9.40;5.93;;;;;;;;;;4997574;28;20625;-80
2021/12/10 01:01:50;;;;;;;9.63;6.40;;;;;;;;;;4996898;28;20239;-80
2021/12/10 01:04:19;;;;;;;7.70;6.07;;;;;;;;;;4997157;28;20179;-80
2021/12/10 01:06:46;;;;;;;8.30;6.50;;;;;;;;;;4996903;28;20708;-80
2021/12/10 01:09:15;;;;;;;7.70;6.27;;;;;;;;;;4997116;28;20238;-80
2021/12/10 01:11:47;;;;;;;8.60;6.17;;;;;;;;;;4997143;28;20203;-80
2021/12/10 01:14:22;;;;;;;8.73;6.63;;;;;;;;;;4997806;28;20175;-80
2021/12/10 01:25:11;;;;;;;8.77;5.63;;;;;;;;;;5014794;28;20253;-80
2021/12/10 01:27:39;;;;;;;8.77;6.00;;;;;;;;;;4997719;28;20206;-80
2021/12/10 01:30:19;;;;;;;8.37;6.03;;;;;;;;;;4996878;28;20186;-80
2021/12/10 01:32:52;;;;;;;9.10;7.03;;;;;;;;;;4996845;28;20233;-80
2021/12/10 01:35:21;;;;;;;11.53;8.03;;;;;;;;;;4996076;28;20175;-80
2021/12/10 01:37:48;;;;;;;11.03;6.70;;;;;;;;;;4996782;28;20187;-80
2021/12/10 01:40:14;;;;;;;7.93;6.00;;;;;;;;;;4996390;28;20214;-80
2021/12/10 01:42:46;;;;;;;9.13;6.43;;;;;;;;;;4996613;28;20223;-80
2021/12/10 01:45:20;;;;;;;8.20;6.40;;;;;;;;;;4996564;28;20245;-80
2021/12/10 01:47:47;;;;;;;8.77;6.27;;;;;;;;;;4996368;28;20230;-80
2021/12/10 01:50:13;;;;;;;7.97;6.23;;;;;;;;;;4996513;28;20187;-80
2021/12/10 01:52:39;;;;;;;9.50;6.67;;;;;;;;;;4995990;28;20195;-80
2021/12/10 01:55:06;;;;;;;9.37;7.43;;;;;;;;;;4996447;28;20175;-80
2021/12/10 01:57:34;;;;;;;9.50;7.27;;;;;;;;;;4996132;28;20194;-80
2021/12/10 02:00:01;;;;;;;10.30;7.80;;;;;;;;;;4996202;28;20638;-80
2021/12/10 02:02:29;;;;;;;13.37;8.23;;;;;;;;;;4996199;28;20204;-80
2021/12/10 02:04:55;;;;;;;12.33;7.57;;;;;;;;;;4995965;28;20183;-80
2021/12/10 02:07:24;;;;;;;11.43;7.67;;;;;;;;;;4996143;28;20204;-80
2021/12/10 02:09:51;;;;;;;9.03;7.03;;;;;;;;;;4996191;28;20180;-80
2021/12/10 02:12:18;;;;;;;11.13;8.27;;;;;;;;;;4995868;28;20206;-80
2021/12/10 02:14:45;;;;;;;11.50;7.53;;;;;;;;;;4996152;28;20180;-80
2021/12/10 02:17:11;;;;;;;8.73;6.53;;;;;;;;;;4996172;28;20187;-80
2021/12/10 02:19:38;;;;;;;9.57;7.00;;;;;;;;;;4996342;28;20187;-80
2021/12/10 02:22:06;;;;;;;9.87;6.93;;;;;;;;;;4995701;28;20198;-80
2021/12/10 02:24:32;;;;;;;8.87;7.10;;;;;;;;;;4996516;28;20183;-80
2021/12/10 02:26:59;;;;;;;10.40;7.40;;;;;;;;;;4996307;28;20209;-80
2021/12/10 02:29:28;;;;;;;11.57;7.30;;;;;;;;;;4996076;28;20175;-80
2021/12/10 02:31:54;;;;;;;12.57;7.60;;;;;;;;;;4995586;28;20226;-80
2021/12/10 02:34:21;;;;;;;10.70;7.07;;;;;;;;;;4996531;28;20175;-80
2021/12/10 02:36:47;;;;;;;10.00;7.17;;;;;;;;;;4996246;28;20183;-80
2021/12/10 02:39:14;;;;;;;10.43;6.60;;;;;;;;;;4996057;28;20252;-80
2021/12/10 02:41:41;;;;;;;8.87;6.10;;;;;;;;;;4996071;28;20609;-80
2021/12/10 02:44:08;;;;;;;9.50;7.03;;;;;;;;;;4996017;28;20234;-80
2021/12/10 02:46:35;;;;;;;8.37;6.23;;;;;;;;;;4996310;28;20202;-80
2021/12/10 02:49:01;;;;;;;11.70;7.80;;;;;;;;;;5000085;28;20226;-80
2021/12/10 02:51:27;;;;;;;11.10;8.07;;;;;;;;;;4999848;28;20179;-80
2021/12/10 02:53:53;;;;;;;12.93;9.00;;;;;;;;;;4999643;28;20716;-80
2021/12/10 02:56:21;;;;;;;14.03;8.97;;;;;;;;;;4999703;28;20179;-80
2021/12/10 02:58:48;;;;;;;13.87;9.03;;;;;;;;;;4999602;28;20175;-80
2021/12/10 03:01:32;;;;;;;14.70;10.13;;;;;;;;;;4999345;28;20257;-80
2021/12/10 03:03:59;;;;;;;15.10;9.80;;;;;;;;;;4999925;28;20185;-80
2021/12/10 03:06:25;;;;;;;14.83;10.63;;;;;;;;;;4999501;28;20238;-80
2021/12/10 03:08:53;;;;;;;13.27;9.20;;;;;;;;;;5016078;28;20179;-80
2021/12/10 03:11:22;;;;;;;15.43;9.23;;;;;;;;;;4999184;28;20171;-80
2021/12/10 03:13:48;;;;;;;13.53;9.57;;;;;;;;;;4999521;28;20187;-80
2021/12/10 03:16:14;;;;;;;16.73;10.07;;;;;;;;;;4999362;28;20653;-80
2021/12/10 03:18:40;;;;;;;15.03;9.70;;;;;;;;;;4999449;28;20595;-80
2021/12/10 03:21:10;;;;;;;13.40;9.93;;;;;;;;;;4999323;28;20179;-80
2021/12/10 03:23:42;;;;;;;11.73;7.80;;;;;;;;;;4999768;28;20183;-80
2021/12/10 03:26:09;;;;;;;11.77;7.67;;;;;;;;;;4998941;28;20183;-80
2021/12/10 03:28:35;;;;;;;10.53;7.40;;;;;;;;;;4998980;28;20214;-80
2021/12/10 03:31:01;;;;;;;11.27;7.77;;;;;;;;;;4999025;28;20244;-80
2021/12/10 03:33:27;;;;;;;14.80;7.50;;;;;;;;;;4999151;28;20203;-80
2021/12/10 03:35:53;;;;;;;10.70;7.50;;;;;;;;;;4998654;28;20176;-80
2021/12/10 03:38:22;;;;;;;8.77;6.63;;;;;;;;;;4999232;28;20182;-80
2021/12/10 03:40:48;;;;;;;11.10;7.10;;;;;;;;;;4998624;28;20283;-80
2021/12/10 03:43:16;;;;;;;9.93;7.47;;;;;;;;;;4998671;28;20222;-80
2021/12/10 03:45:45;;;;;;;15.57;7.57;;;;;;;;;;4999062;28;20187;-80
2021/12/10 03:48:13;;;;;;;10.97;7.60;;;;;;;;;;4998859;28;20217;-80
2021/12/10 03:50:39;;;;;;;8.80;6.53;;;;;;;;;;4998548;28;20459;-80
2021/12/10 03:53:05;;;;;;;9.43;6.87;;;;;;;;;;4998386;28;20286;-80
2021/12/10 03:55:31;;;;;;;10.27;7.20;;;;;;;;;;4998528;28;20180;-80
2021/12/10 03:57:58;;;;;;;10.13;7.53;;;;;;;;;;4998035;28;20545;-80
2021/12/10 04:00:26;;;;;;;12.97;7.77;;;;;;;;;;4998712;28;20193;-80
2021/12/10 04:02:52;;;;;;;12.83;8.10;;;;;;;;;;4998692;28;20409;-80
2021/12/10 04:05:18;;;;;;;12.63;7.83;;;;;;;;;;4998541;28;20273;-80
2021/12/10 04:07:44;;;;;;;9.97;7.60;;;;;;;;;;4997900;28;20206;-80
2021/12/10 04:10:12;;;;;;;10.07;7.10;;;;;;;;;;4998243;28;20182;-80
2021/12/10 04:12:38;;;;;;;9.03;7.07;;;;;;;;;;4997983;28;20208;-80
2021/12/10 04:15:04;;;;;;;11.07;6.73;;;;;;;;;;4998571;28;20321;-80
2021/12/10 04:17:30;;;;;;;9.17;6.87;;;;;;;;;;4998575;28;20187;-80
2021/12/10 04:19:57;;;;;;;10.10;6.37;;;;;;;;;;4998358;28;20183;-80
2021/12/10 04:22:24;;;;;;;10.17;6.63;;;;;;;;;;4997837;28;20345;-80
2021/12/10 04:24:50;;;;;;;10.33;6.40;;;;;;;;;;4997737;28;20190;-80
2021/12/10 04:27:17;;;;;;;9.70;6.40;;;;;;;;;;4998222;28;20218;-80
2021/12/10 04:29:44;;;;;;;9.23;6.77;;;;;;;;;;4998013;28;20183;-80
2021/12/10 04:32:11;;;;;;;10.47;5.83;;;;;;;;;;4997505;28;20291;-80
2021/12/10 04:34:37;;;;;;;8.10;5.67;;;;;;;;;;4998121;28;20191;-80
2021/12/10 04:37:05;;;;;;;7.00;5.17;;;;;;;;;;4997621;28;20182;-80
2021/12/10 04:39:33;;;;;;;6.87;4.77;;;;;;;;;;4997661;28;20592;-80
2021/12/10 04:41:59;;;;;;;6.03;4.33;;;;;;;;;;4997888;28;20210;-80
2021/12/10 04:44:25;;;;;;;8.60;4.77;;;;;;;;;;4997603;28;20189;-80
2021/12/10 04:46:51;;;;;;;8.73;4.00;;;;;;;;;;4997242;28;20199;-81
2021/12/10 04:49:17;;;;;;;5.67;3.70;;;;;;;;;;4997335;28;20171;-81
2021/12/10 04:51:52;;;;;;;6.03;4.03;;;;;;;;;;4997280;28;20199;-80
2021/12/10 04:54:19;;;;;;;7.77;3.87;;;;;;;;;;4997215;28;20265;-80
2021/12/10 04:56:45;;;;;;;5.90;3.90;;;;;;;;;;4996977;28;20182;-80
2021/12/10 04:59:13;;;;;;;6.90;3.60;;;;;;;;;;4997385;28;20225;-80
2021/12/10 05:01:40;;;;;;;6.67;3.53;;;;;;;;;;4996956;28;20748;-80
2021/12/10 05:04:07;;;;;;;5.97;3.17;;;;;;;;;;4996765;28;20187;-80
2021/12/10 05:06:34;;;;;;;8.10;2.90;;;;;;;;;;4997117;28;20179;-80
2021/12/10 05:09:00;;;;;;;5.17;3.03;;;;;;;;;;4996592;28;20171;-80
2021/12/10 05:11:26;;;;;;;5.07;3.00;;;;;;;;;;4996282;28;20184;-80
2021/12/10 05:13:52;;;;;;;6.47;3.30;;;;;;;;;;4997080;28;20191;-80
2021/12/10 05:16:24;;;;;;;4.63;2.80;;;;;;;;;;4996758;28;20179;-80
2021/12/10 05:18:56;;;;;;;6.93;3.20;;;;;;;;;;4996831;28;20262;-80
2021/12/10 05:21:23;;;;;;;4.70;2.60;;;;;;;;;;4997387;28;20194;-80
2021/12/10 05:23:49;;;;;;;7.00;2.80;;;;;;;;;;4996715;28;20182;-80
2021/12/10 05:26:15;;;;;;;5.03;3.10;;;;;;;;;;4996734;28;20206;-80
2021/12/10 05:28:41;;;;;;;4.17;2.73;;;;;;;;;;4996688;28;20183;-80
2021/12/10 05:31:07;;;;;;;4.63;3.10;;;;;;;;;;4996408;28;20245;-80
2021/12/10 05:33:33;;;;;;;6.83;3.10;;;;;;;;;;4996407;28;20226;-80
2021/12/10 05:36:01;;;;;;;9.13;3.20;;;;;;;;;;4996829;28;20615;-80
2021/12/10 05:38:27;;;;;;;4.80;2.80;;;;;;;;;;4996461;28;20180;-80
2021/12/10 05:40:54;;;;;;;6.50;2.97;;;;;;;;;;4996257;28;20210;-80
2021/12/10 05:43:20;;;;;;;4.77;2.80;;;;;;;;;;4996182;28;20215;-80
2021/12/10 05:45:47;;;;;;;5.57;3.10;;;;;;;;;;4995874;28;20186;-80
2021/12/10 05:48:14;;;;;;;5.13;3.10;;;;;;;;;;4995878;28;20581;-80
2021/12/10 05:50:40;;;;;;;6.97;3.20;;;;;;;;;;4996461;28;20177;-80
2021/12/10 05:53:07;;;;;;;9.03;2.87;;;;;;;;;;4996372;28;20197;-80
2021/12/10 05:55:33;;;;;;;6.47;2.70;;;;;;;;;;4996202;28;20185;-80
2021/12/10 05:57:59;;;;;;;5.73;2.70;;;;;;;;;;4996125;28;20179;-80
2021/12/10 06:00:28;;;;;;;5.53;2.30;;;;;;;;;;4995785;28;20549;-81
2021/12/10 06:02:55;;;;;;;6.00;2.43;;;;;;;;;;4995785;28;20199;-81
2021/12/10 06:05:21;;;;;;;5.80;2.20;;;;;;;;;;4996137;28;20179;-81
2021/12/10 06:07:48;;;;;;;3.10;2.07;;;;;;;;;;4995899;28;20206;-81
2021/12/10 06:10:15;;;;;;;5.20;2.30;;;;;;;;;;4996235;28;20211;-81
2021/12/10 06:12:42;;;;;;;4.03;2.03;;;;;;;;;;4995337;28;20615;-80
2021/12/10 06:15:09;;;;;;;4.23;1.93;;;;;;;;;;4995506;28;20226;-82
2021/12/10 06:17:35;;;;;;;4.23;2.20;;;;;;;;;;4995764;28;20187;-81
2021/12/10 06:20:02;;;;;;;5.93;2.27;;;;;;;;;;4995941;28;20179;-81
2021/12/10 06:22:28;;;;;;;6.43;2.23;;;;;;;;;;4999317;28;20199;-81
2021/12/10 06:24:54;;;;;;;4.60;2.00;;;;;;;;;;4999549;28;20555;-81
2021/12/10 06:27:20;;;;;;;6.77;2.17;;;;;;;;;;4999705;28;20204;-80
2021/12/10 06:29:46;;;;;;;3.17;1.90;;;;;;;;;;4999791;28;20179;-81
2021/12/10 06:32:12;;;;;;;5.33;2.30;;;;;;;;;;4999892;28;20210;-81
2021/12/10 06:34:38;;;;;;;5.20;2.13;;;;;;;;;;4999879;28;20171;-81
2021/12/10 06:37:05;;;;;;;5.60;2.03;;;;;;;;;;4999891;28;20186;-81
2021/12/10 06:39:31;;;;;;;4.07;1.97;;;;;;;;;;4999635;28;20179;-81
2021/12/10 06:41:57;;;;;;;4.23;2.30;;;;;;;;;;5052238;23;20217;-79
2021/12/10 06:44:23;;;;;;;5.43;2.20;;;;;;;;;;5042598;28;20181;-79
2021/12/10 06:46:50;;;;;;;7.63;2.10;;;;;;;;;;5043192;28;20738;-79
2021/12/10 06:49:17;;;;;;;8.27;2.50;;;;;;;;;;5043537;28;20202;-79
2021/12/10 06:51:44;;;;;;;3.97;2.00;;;;;;;;;;5059537;28;20226;-79
2021/12/10 06:54:10;;;;;;;4.07;2.20;;;;;;;;;;5043316;28;20252;-79
2021/12/10 06:56:36;;;;;;;4.83;2.00;;;;;;;;;;5060102;28;20223;-79
2021/12/10 06:59:07;;;;;;;5.63;2.40;;;;;;;;;;5060274;28;20255;-79
2021/12/10 07:01:38;;;;;;;6.33;2.50;;;;;;;;;;5059213;28;20173;-79
2021/12/10 07:04:05;;;;;;;5.23;2.47;;;;;;;;;;5076719;28;20306;-80
2021/12/10 07:06:31;;;;;;;3.80;2.20;;;;;;;;;;5042496;28;20206;-80
2021/12/10 07:08:58;;;;;;;6.37;2.40;;;;;;;;;;5042141;28;20174;-81
2021/12/10 07:11:25;;;;;;;6.43;2.17;;;;;;;;;;5040520;28;20177;-77
2021/12/10 07:13:54;;;;;;;5.87;2.23;;;;;;;;;;5041530;28;20182;-79
2021/12/10 07:16:21;;;;;;;5.10;2.20;;;;;;;;;;5041169;28;20177;-77
2021/12/10 07:18:48;;;;;;;4.70;2.40;;;;;;;;;;5040860;28;20184;-77
2021/12/10 07:21:15;;;;;;;2.33;2.10;;;;;;;;;;5057217;28;20189;-77
2021/12/10 07:23:42;;;;;;;5.57;2.20;;;;;;;;;;5057591;28;20261;-79
2021/12/10 07:26:08;;;;;;;4.40;2.20;;;;;;;;;;5057851;28;20183;-79
2021/12/10 07:28:34;;;;;;;6.43;2.63;;;;;;;;;;5058193;28;20214;-78
2021/12/10 07:31:01;;;;;;;3.87;2.20;;;;;;;;;;5041235;28;20599;-79
2021/12/10 07:33:27;;;;;;;4.70;2.30;;;;;;;;;;5040414;28;20291;-77
2021/12/10 07:35:53;;;;;;;5.37;2.20;;;;;;;;;;5057765;28;20233;-79
2021/12/10 07:38:19;;;;;;;3.53;2.20;;;;;;;;;;5057993;28;20556;-77
2021/12/10 07:40:46;;;;;;;6.17;2.60;;;;;;;;;;5056818;28;20628;-77
2021/12/10 07:43:12;;;;;;;5.93;2.93;;;;;;;;;;5057460;28;20217;-78
2021/12/10 07:45:43;;;;;;;6.53;3.00;;;;;;;;;;5041279;28;20183;-79
2021/12/10 07:48:11;;;;;;;5.57;3.10;;;;;;;;;;5058416;28;20209;-79
2021/12/10 07:50:43;;;;;;;4.30;2.73;;;;;;;;;;5041925;28;20182;-79
2021/12/10 07:53:10;;;;;;;4.60;2.87;;;;;;;;;;5041169;28;20200;-79
2021/12/10 07:55:37;;;;;;;6.83;2.67;;;;;;;;;;5057699;28;20190;-78
2021/12/10 07:58:04;;;;;;;4.50;2.90;;;;;;;;;;5041082;28;20676;-79
2021/12/10 08:00:32;;;;;;;4.67;2.50;;;;;;;;;;5041191;28;20183;-79
2021/12/10 08:02:58;;;;;;;5.90;2.93;;;;;;;;;;5041569;28;20695;-79
2021/12/10 08:05:26;;;;;;;7.00;2.50;;;;;;;;;;5057636;28;20275;-80
2021/12/10 08:07:53;;;;;;;5.50;2.60;;;;;;;;;;5040783;28;20262;-79
2021/12/10 08:10:20;;;;;;;5.67;2.60;;;;;;;;;;5057703;28;20212;-80
2021/12/10 08:12:46;;;;;;;5.37;2.80;;;;;;;;;;5058436;28;20191;-79
2021/12/10 08:15:12;;;;;;;5.13;2.47;;;;;;;;;;5059394;28;20175;-79
2021/12/10 08:17:39;;;;;;;3.60;2.50;;;;;;;;;;5042076;28;20183;-79
2021/12/10 08:20:07;;;;;;;17.03;7.30;;;;;;;;;;5058040;28;20182;-79
2021/12/10 08:22:33;;;;;;;10.47;6.13;;;;;;;;;;5056759;28;20258;-80
2021/12/10 08:24:59;;;;;;;8.33;2.27;;;;;;;;;;5057293;28;20264;-80
2021/12/10 08:27:25;;;;;;;3.47;2.30;;;;;;;;;;5056619;28;20209;-80
2021/12/10 08:29:52;;;;;;;5.27;2.20;;;;;;;;;;5057030;28;20216;-79
2021/12/10 08:32:21;;;;;;;6.73;2.30;;;;;;;;;;5039877;28;20209;-79
2021/12/10 08:34:50;;;;;;;4.93;1.90;;;;;;;;;;5056607;28;20173;-79
2021/12/10 08:37:17;;;;;;;4.57;1.60;;;;;;;;;;5056643;28;20211;-79
2021/12/10 08:39:43;;;;;;;4.07;1.43;;;;;;;;;;5040042;28;20189;-79
2021/12/10 08:42:12;;;;;;;5.80;1.80;;;;;;;;;;5056479;28;20220;-79
2021/12/10 08:44:38;;;;;;;2.23;1.50;;;;;;;;;;5041980;28;20199;-79
2021/12/10 08:47:04;;;;;;;3.03;1.70;;;;;;;;;;5034501;28;20208;-79
2021/12/10 08:49:30;;;;;;;4.80;1.93;;;;;;;;;;5056699;28;20188;-79
2021/12/10 08:51:57;;;;;;;4.37;1.63;;;;;;;;;;5039999;28;20245;-79
2021/12/10 08:54:26;;;;;;;8.23;1.77;;;;;;;;;;5056624;28;20173;-79
2021/12/10 08:56:52;;;;;;;4.07;1.60;;;;;;;;;;5056679;28;20606;-79
2021/12/10 08:59:21;;;;;;;3.90;1.57;;;;;;;;;;5039718;28;20216;-80
2021/12/10 09:01:48;;;;;;;3.10;1.50;;;;;;;;;;5074168;28;20193;-79
2021/12/10 09:04:14;;;;;;;3.60;1.50;;;;;;;;;;5039995;28;20188;-79
2021/12/10 09:06:45;;;;;;;4.17;1.50;;;;;;;;;;5040047;28;20181;-79
2021/12/10 09:09:13;;;;;;;4.53;1.40;;;;;;;;;;5056118;28;20208;-79
2021/12/10 09:11:40;;;;;;;1.87;1.30;;;;;;;;;;5055504;28;20196;-79
2021/12/10 09:14:08;;;;;;;3.43;1.50;;;;;;;;;;5039683;28;20188;-80
2021/12/10 09:16:36;;;;;;;3.30;1.50;;;;;;;;;;5073834;28;20250;-80
2021/12/10 09:19:04;;;;;;;2.67;1.33;;;;;;;;;;5056229;28;20208;-79
2021/12/10 09:21:31;;;;;;;4.03;1.53;;;;;;;;;;5055922;28;20581;-79
2021/12/10 09:24:03;;;;;;;4.77;1.60;;;;;;;;;;5039827;28;20269;-79
2021/12/10 09:26:29;;;;;;;5.70;1.63;;;;;;;;;;5056260;28;20615;-79
2021/12/10 09:28:57;;;;;;;2.33;1.50;;;;;;;;;;5040200;28;20171;-79
2021/12/10 09:31:24;;;;;;;4.17;1.53;;;;;;;;;;5039999;28;20698;-79
2021/12/10 09:33:54;;;;;;;3.83;1.87;;;;;;;;;;5040012;28;20181;-79
2021/12/10 09:36:20;;;;;;;5.50;1.43;;;;;;;;;;5056421;28;20233;-79
2021/12/10 09:38:46;;;;;;;3.70;1.47;;;;;;;;;;5056139;28;20553;-79
2021/12/10 09:41:12;;;;;;;5.27;1.60;;;;;;;;;;5057108;28;20182;-80
2021/12/10 09:43:39;;;;;;;5.33;1.50;;;;;;;;;;5060461;28;20265;-80
2021/12/10 09:46:05;;;;;;;4.57;1.70;;;;;;;;;;5039386;28;20191;-79
2021/12/10 09:48:32;;;;;;;6.37;1.93;;;;;;;;;;5039336;28;20297;-80
2021/12/10 09:51:24;;;;;;;3.53;1.33;;;;;;;;;;5038635;28;20180;-79
2021/12/10 09:53:52;;;;;;;4.23;2.13;;;;;;;;;;5052565;28;20563;-79
2021/12/10 09:56:19;;;;;;;4.70;1.60;;;;;;;;;;5055735;28;20189;-80
2021/12/10 09:58:45;;;;;;;4.73;1.60;;;;;;;;;;5059694;28;20185;-80
2021/12/10 10:01:17;;;;;;;3.87;1.50;;;;;;;;;;5061132;28;20670;-80
2021/12/10 10:03:45;;;;;;;3.30;1.57;;;;;;;;;;5045273;28;20228;-79
2021/12/10 10:06:11;;;;;;;3.53;1.50;;;;;;;;;;5044985;28;20184;-80
2021/12/10 10:08:38;;;;;;;4.50;1.70;;;;;;;;;;5061031;28;20206;-79
2021/12/10 10:11:09;;;;;;;2.90;1.70;;;;;;;;;;5059365;28;20176;-80
2021/12/10 10:13:38;;;;;;;2.20;1.77;;;;;;;;;;5058459;28;20194;-80
2021/12/10 10:16:04;;;;;;;4.47;2.47;;;;;;;;;;5058618;28;20217;-80
2021/12/10 10:18:31;;;;;;;3.90;1.80;;;;;;;;;;5058540;28;20187;-80
2021/12/10 10:21:00;;;;;;;3.70;1.83;;;;;;;;;;5040895;28;20188;-79
2021/12/10 10:23:28;;;;;;;5.57;1.77;;;;;;;;;;5058746;28;20206;-80
2021/12/10 10:25:55;;;;;;;6.23;1.90;;;;;;;;;;5042346;28;20270;-80
2021/12/10 10:28:23;;;;;;;4.40;1.60;;;;;;;;;;5042852;28;20203;-80
2021/12/10 10:31:02;;;;;;;4.00;1.50;;;;;;;;;;5059190;28;20211;-80
2021/12/10 10:33:29;;;;;;;5.90;1.90;;;;;;;;;;5059203;28;20195;-80
2021/12/10 10:35:57;;;;;;;3.30;1.43;;;;;;;;;;5042212;28;20201;-80
2021/12/10 10:38:24;;;;;;;4.30;1.60;;;;;;;;;;5058122;28;20641;-79
2021/12/10 10:40:55;;;;;;;2.33;1.70;;;;;;;;;;5040843;28;20211;-79
2021/12/10 10:43:23;;;;;;;2.47;1.50;;;;;;;;;;5076278;28;20215;-80
2021/12/10 10:45:49;;;;;;;2.23;1.40;;;;;;;;;;5058086;28;20183;-80
2021/12/10 10:48:16;;;;;;;5.67;1.73;;;;;;;;;;5058651;28;20288;-79
2021/12/10 10:50:48;;;;;;;3.80;1.87;;;;;;;;;;5040780;28;20668;-80
2021/12/10 10:53:17;;;;;;;2.37;1.50;;;;;;;;;;5055513;28;20196;-79
2021/12/10 10:55:52;;;;;;;1.87;1.30;;;;;;;;;;5054935;28;20180;-79
2021/12/10 10:58:19;;;;;;;2.20;1.30;;;;;;;;;;5038128;28;20191;-79
2021/12/10 11:00:57;;;;;;;3.23;1.47;;;;;;;;;;5055039;28;20184;-79
2021/12/10 11:03:26;;;;;;;5.23;2.13;;;;;;;;;;5059686;28;20296;-80
2021/12/10 11:05:55;;;;;;;3.13;1.80;;;;;;;;;;5041950;28;20201;-80
2021/12/10 11:08:42;;;;;;;2.87;1.40;;;;;;;;;;5073737;28;20203;-79
2021/12/10 11:11:10;;;;;;;3.40;1.60;;;;;;;;;;5057905;28;20163;-79
2021/12/10 11:13:37;;;;;;;3.20;2.07;;;;;;;;;;5076518;28;20196;-75
2021/12/10 11:16:04;;;;;;;4.27;1.80;;;;;;;;;;5059725;28;20521;-79
2021/12/10 11:18:40;;;;;;;2.33;1.43;;;;;;;;;;5042349;28;20199;-80
2021/12/10 11:21:06;;;;;;;3.70;2.23;;;;;;;;;;5063935;28;20200;-81
2021/12/10 11:23:33;;;;;;;2.23;1.60;;;;;;;;;;5064350;28;20192;-80
2021/12/10 11:26:00;;;;;;;3.50;2.07;;;;;;;;;;5064523;28;20188;-81
2021/12/10 11:28:28;;;;;;;4.17;2.23;;;;;;;;;;5079261;28;20678;-79
2021/12/10 11:31:02;;;;;;;3.70;2.10;;;;;;;;;;5042978;28;20211;-80
2021/12/10 11:33:29;;;;;;;3.47;2.00;;;;;;;;;;5059880;28;20678;-77
2021/12/10 11:35:58;;;;;;;2.60;1.53;;;;;;;;;;5041052;28;20189;-77
2021/12/10 11:38:29;;;;;;;2.23;1.80;;;;;;;;;;5074848;28;20202;-76
2021/12/10 11:40:56;;;;;;;4.30;1.53;;;;;;;;;;5056984;28;20181;-77
2021/12/10 11:43:44;;;;;;;2.93;1.90;;;;;;;;;;5056860;28;20310;-77
2021/12/10 11:48:47;;;;;;;2.17;1.60;;;;;;;;;;5074635;28;20201;-77
2021/12/10 11:51:19;;;;;;;3.20;1.83;;;;;;;;;;5040257;28;20269;-77
2021/12/10 11:53:53;;;;;;;4.60;2.30;;;;;;;;;;5056864;28;20199;-77
2021/12/10 11:56:22;;;;;;;5.27;2.10;;;;;;;;;;5040437;28;20343;-77
2021/12/10 11:59:07;;;;;;;3.00;1.87;;;;;;;;;;5074758;28;20707;-77
2021/12/10 12:01:34;;;;;;;4.93;2.60;;;;;;;;;;5056612;28;20185;-77
2021/12/10 12:04:14;;;;;;;6.30;2.70;;;;;;;;;;5057193;28;20182;-77
2021/12/10 12:06:41;;;;;;;3.00;2.00;;;;;;;;;;5057031;28;20195;-77
2021/12/10 12:09:07;;;;;;;2.77;1.73;;;;;;;;;;5056766;28;20634;-77
2021/12/10 12:11:33;;;;;;;3.73;2.50;;;;;;;;;;5040488;28;20183;-77
2021/12/10 12:14:00;;;;;;;3.63;2.20;;;;;;;;;;5041372;28;20177;-77
2021/12/10 12:16:28;;;;;;;3.93;2.40;;;;;;;;;;5057424;28;20180;-77
2021/12/10 12:18:57;;;;;;;4.40;3.80;;;;;;;;;;5058253;28;20184;-80
2021/12/10 12:27:14;;;;;;;5.13;2.70;;;;;;;;;;5080239;28;20194;-79
2021/12/10 12:29:40;;;;;;;3.60;2.67;;;;;;;;;;5061365;28;20169;-79
2021/12/10 12:32:11;;;;;;;4.77;3.07;;;;;;;;;;5061453;28;20204;-79
2021/12/10 12:34:37;;;;;;;4.10;2.80;;;;;;;;;;5062283;28;20180;-79
2021/12/10 12:37:05;;;;;;;5.73;2.97;;;;;;;;;;5079014;28;20177;-79
2021/12/10 12:39:44;;;;;;;3.93;2.60;;;;;;;;;;5062042;28;20267;-79
2021/12/10 12:44:41;;;;;;;4.13;2.60;;;;;;;;;;5074527;22;20318;-83
2021/12/10 12:47:10;;;;;;;4.97;2.90;;;;;;;;;;5048177;28;20239;-83
2021/12/10 12:49:42;;;;;;;4.37;2.50;;;;;;;;;;5035766;28;20195;-83
2021/12/10 12:52:13;;;;;;;5.43;2.80;;;;;;;;;;5035600;28;20230;-84
2021/12/10 12:54:59;;;;;;;4.43;2.87;;;;;;;;;;5015807;28;20173;-83
2021/12/10 12:57:35;;;;;;;4.53;2.90;;;;;;;;;;5015248;28;20180;-83
2021/12/10 13:00:03;;;;;;;5.70;2.73;;;;;;;;;;5015643;28;20219;-82
2021/12/10 13:02:30;;;;;;;4.47;2.97;;;;;;;;;;5015356;28;20181;-83
2021/12/10 13:04:56;;;;;;;5.83;2.90;;;;;;;;;;4999462;28;20261;-84
2021/12/10 13:07:24;;;;;;;3.97;3.03;;;;;;;;;;5026761;28;20205;-83
2021/12/10 13:09:55;;;;;;;6.30;3.23;;;;;;;;;;4995684;28;20743;-83
2021/12/10 13:15:08;;;;;;;5.37;3.07;;;;;;;;;;5024443;28;20180;-83
2021/12/10 13:17:37;;;;;;;5.20;4.53;;;;;;;;;;5006782;28;20248;-82
2021/12/10 13:20:19;;;;;;;4.43;2.93;;;;;;;;;;4999028;28;20200;-80
2021/12/10 13:22:45;;;;;;;6.43;3.20;;;;;;;;;;4999651;28;20264;-84
2021/12/10 13:25:16;;;;;;;5.80;3.50;;;;;;;;;;4995468;28;20186;-84
2021/12/10 13:27:43;;;;;;;5.83;3.60;;;;;;;;;;5011790;28;20264;-84
2021/12/10 13:30:12;;;;;;;4.53;3.20;;;;;;;;;;5028068;28;20184;-83
2021/12/10 13:32:40;;;;;;;5.53;3.13;;;;;;;;;;4998732;28;20212;-83
2021/12/10 13:35:06;;;;;;;4.63;3.10;;;;;;;;;;5016627;28;20207;-83
2021/12/10 13:37:33;;;;;;;6.17;3.60;;;;;;;;;;5031603;28;20188;-83
2021/12/10 13:40:00;;;;;;;4.70;3.20;;;;;;;;;;4997947;28;20646;-83
2021/12/10 13:42:26;;;;;;;6.40;4.03;;;;;;;;;;5015267;28;20180;-83
2021/12/10 13:44:55;;;;;;;24.33;12.77;;;;;;;;;;5015686;28;20187;-84
2021/12/10 13:47:25;;;;;;;6.93;3.70;;;;;;;;;;4999367;28;20232;-83
2021/12/10 13:49:54;;;;;;;5.43;3.87;;;;;;;;;;5015298;28;20620;-83
2021/12/10 13:52:33;;;;;;;6.10;3.10;;;;;;;;;;5015013;28;20181;-83
2021/12/10 13:55:00;;;;;;;4.20;3.17;;;;;;;;;;5014212;28;20182;-83
2021/12/10 13:57:26;;;;;;;5.57;4.23;;;;;;;;;;4998595;28;20225;-84
2021/12/10 13:59:56;;;;;;;5.87;3.87;;;;;;;;;;5014843;28;20177;-83
2021/12/10 14:02:31;;;;;;;15.30;7.90;;;;;;;;;;4998311;28;20195;-84
2021/12/10 14:04:59;;;;;;;4.93;3.47;;;;;;;;;;5014835;28;20177;-83
2021/12/10 14:07:25;;;;;;;8.13;3.67;;;;;;;;;;5014728;28;20757;-83
2021/12/10 14:09:53;;;;;;;12.50;7.40;;;;;;;;;;4998427;28;20213;-83
2021/12/10 14:12:41;;;;;;;5.00;3.40;;;;;;;;;;5014504;28;20169;-83
2021/12/10 14:15:07;;;;;;;5.67;3.60;;;;;;;;;;4998439;28;20180;-83
2021/12/10 14:17:36;;;;;;;7.33;3.60;;;;;;;;;;5015059;28;20183;-83
2021/12/10 14:20:23;;;;;;;4.50;3.60;;;;;;;;;;5032080;28;20233;-83
2021/12/10 14:22:51;;;;;;;7.13;3.80;;;;;;;;;;4998718;28;20209;-83
2021/12/10 14:25:37;;;;;;;6.03;3.70;;;;;;;;;;4998567;28;20528;-83
2021/12/10 14:28:11;;;;;;;5.10;3.03;;;;;;;;;;4998200;28;20211;-84
2021/12/10 14:30:40;;;;;;;7.37;3.70;;;;;;;;;;5014864;28;20167;-83
2021/12/10 14:33:09;;;;;;;7.70;3.80;;;;;;;;;;5014914;28;20600;-84
2021/12/10 14:35:41;;;;;;;6.87;3.60;;;;;;;;;;5014856;28;20183;-83
2021/12/10 14:38:08;;;;;;;8.40;4.20;;;;;;;;;;4998259;28;20184;-83
2021/12/10 14:40:39;;;;;;;5.80;4.10;;;;;;;;;;4997910;28;20187;-83
2021/12/10 14:43:14;;;;;;;5.70;3.43;;;;;;;;;;5017177;28;20213;-83
2021/12/10 14:45:59;;;;;;;7.90;4.23;;;;;;;;;;5018039;28;20174;-83
2021/12/10 14:48:25;;;;;;;4.93;3.43;;;;;;;;;;5018102;28;20215;-83
2021/12/10 14:50:59;;;;;;;5.13;3.23;;;;;;;;;;5001292;28;20180;-84
2021/12/10 14:53:30;;;;;;;6.70;4.23;;;;;;;;;;5017958;28;20206;-84
2021/12/10 14:55:56;;;;;;;6.80;3.97;;;;;;;;;;5001717;28;20187;-84
2021/12/10 14:58:22;;;;;;;6.03;4.00;;;;;;;;;;5018080;28;20175;-84
2021/12/10 15:00:53;;;;;;;7.17;4.20;;;;;;;;;;5017905;28;20183;-83
2021/12/10 15:03:24;;;;;;;5.90;3.63;;;;;;;;;;5001620;28;20202;-82
2021/12/10 15:05:59;;;;;;;6.10;3.80;;;;;;;;;;5017851;28;20186;-83
2021/12/10 15:08:39;;;;;;;5.83;3.80;;;;;;;;;;5017767;28;20213;-83